Flint, MI (48557)

4:00 PM EDT on September 03, 2015 (GMT -0400)
Dave Grand Blanc | | Change Station
CLOSE
Current Station
Personal Weather Station
Location: Grand Blanc, MI
Elevation: 797 ft
Nearby Weather Stations

Elev 797 ft 42.95 °N, 83.67 °W | Updated 2 seconds ago

Overcast
Overcast
72.0 °F
Feels Like 71 °F
N
2.5
Wind Variable Wind from East
Gusts 6.9 mph

Today
High -- | Low -- °F
--% Chance of Precip.
Yesterday
High -- | Low -- °F
Precip. -- in
7:01 AM 8:06 PM
Waning Gibbous, 67% visible
Pressure 29.93 in
Visibility 10.0 miles
Clouds Few 10000 ft
Heat Index 71 °F
Dew Point 67 °F
Humidity 84%
Rainfall 0.33 in
Snow Depth Not available.
UV 6 out of 12
Pollen 9.70 out of 12
Air Quality Not available.
Flu Activity Not available.
METAR KFNT 031953Z 11009KT 10SM FEW100 23/19 A2994 RMK AO2 LTG DSNT NW RAE09 SLP135 P0000 T02280194
Pressure 29.93 in
Visibility 10.0 miles
Clouds Few 10000 ft
Heat Index 71 °F
Dew Point 67 °F
Humidity 84%
Rainfall 0.33 in
Snow Depth Not available.
UV 6 out of 12
Pollen 9.70 out of 12
Air Quality Not available.
Flu Activity Not available.
METAR KFNT 031953Z 11009KT 10SM FEW100 23/19 A2994 RMK AO2 LTG DSNT NW RAE09 SLP135 P0000 T02280194

10-Day Weather Forecast

×

Almanac

Astronomy

Sep. 03, 2015 Rise Set
Actual Time
Civil Twilight
Nautical Twilight
Astronomical Twilight
Moon
Length of Visible Light
Length of Day
Tomorrow will be .
, % of the Moon is Illuminated

Today's Extremes

State Highs State Lows

Community

WunderPhotos

Upload Photos

1,852,019 photos uploaded!

WunderBlogs® & News

Nearby

Air Quality

  Air Quality AQ Index Pollutant
Not available.

Snow Depth

Station Depth Elevation

Earthquake Activity

City Distance Mag. Time & Date
Minimum magnitude displayed is 2.5.

Coastal Water Temperatures

Place Temperature

Stations

Nearby Weather Stations

Station Location Temp. Windchill Dew Point Humidity Wind Precip. Elev Updated Type